sensor_id;sensor_type;location;lat;lon;timestamp;pressure;altitude;pressure_sealevel;temperature;humidity
32251;BME280;41295;48.518;9.206;2023-09-19T00:00:30;96906.75;;;18.75;74.03
32251;BME280;41295;48.518;9.206;2023-09-19T00:02:34;96903.38;;;18.73;74.40
32251;BME280;41295;48.518;9.206;2023-09-19T00:04:38;96899.81;;;18.74;74.72
32251;BME280;41295;48.518;9.206;2023-09-19T00:06:41;96905.09;;;18.74;74.56
32251;BME280;41295;48.518;9.206;2023-09-19T00:08:45;96895.59;;;18.71;74.58
32251;BME280;41295;48.518;9.206;2023-09-19T00:10:49;96897.38;;;18.71;74.30
32251;BME280;41295;48.518;9.206;2023-09-19T00:12:52;96908.78;;;18.71;74.03
32251;BME280;41295;48.518;9.206;2023-09-19T00:14:58;96910.59;;;18.71;74.23
32251;BME280;41295;48.518;9.206;2023-09-19T00:17:02;96913.34;;;18.69;74.05
32251;BME280;41295;48.518;9.206;2023-09-19T00:19:11;96902.78;;;18.69;74.05
32251;BME280;41295;48.518;9.206;2023-09-19T00:21:15;96908.06;;;18.69;72.53
32251;BME280;41295;48.518;9.206;2023-09-19T00:23:18;96907.25;;;18.69;72.84
32251;BME280;41295;48.518;9.206;2023-09-19T00:25:21;96907.25;;;18.69;72.73
32251;BME280;41295;48.518;9.206;2023-09-19T00:27:24;96909.88;;;18.69;72.83
32251;BME280;41295;48.518;9.206;2023-09-19T00:29:26;96909.97;;;18.67;73.03
32251;BME280;41295;48.518;9.206;2023-09-19T00:31:30;96911.69;;;18.68;73.01
32251;BME280;41295;48.518;9.206;2023-09-19T00:33:33;96908.06;;;18.69;72.99
32251;BME280;41295;48.518;9.206;2023-09-19T00:35:37;96914.19;;;18.70;72.75
32251;BME280;41295;48.518;9.206;2023-09-19T00:37:40;96909.75;;;18.70;72.37
32251;BME280;41295;48.518;9.206;2023-09-19T00:39:43;96907.94;;;18.71;72.67
32251;BME280;41295;48.518;9.206;2023-09-19T00:41:46;96909.66;;;18.72;72.67
32251;BME280;41295;48.518;9.206;2023-09-19T00:43:48;96905.91;;;18.74;72.56
32251;BME280;41295;48.518;9.206;2023-09-19T00:45:53;96907.00;;;18.72;72.68
32251;BME280;41295;48.518;9.206;2023-09-19T00:47:56;96909.41;;;18.75;72.84
32251;BME280;41295;48.518;9.206;2023-09-19T00:49:59;96909.41;;;18.75;72.89
32251;BME280;41295;48.518;9.206;2023-09-19T00:52:03;96910.25;;;18.75;72.69
32251;BME280;41295;48.518;9.206;2023-09-19T00:54:07;96910.25;;;18.75;72.65
32251;BME280;41295;48.518;9.206;2023-09-19T00:56:09;96915.41;;;18.77;72.61
32251;BME280;41295;48.518;9.206;2023-09-19T00:58:12;96912.75;;;18.77;72.43
32251;BME280;41295;48.518;9.206;2023-09-19T01:00:15;96914.56;;;18.77;72.64
32251;BME280;41295;48.518;9.206;2023-09-19T01:02:17;96909.41;;;18.75;72.67
32251;BME280;41295;48.518;9.206;2023-09-19T01:04:20;96911.06;;;18.76;73.09
32251;BME280;41295;48.518;9.206;2023-09-19T01:06:23;96918.16;;;18.75;73.27
32251;BME280;41295;48.518;9.206;2023-09-19T01:08:27;96915.53;;;18.75;73.30
32251;BME280;41295;48.518;9.206;2023-09-19T01:10:31;96912.88;;;18.75;73.29
32251;BME280;41295;48.518;9.206;2023-09-19T01:12:53;96920.81;;;18.75;73.49
32251;BME280;41295;48.518;9.206;2023-09-19T01:15:05;96920.81;;;18.75;73.61
32251;BME280;41295;48.518;9.206;2023-09-19T01:17:14;96927.16;;;18.73;74.01
32251;BME280;41295;48.518;9.206;2023-09-19T01:22:04;96916.72;;;18.71;73.42
32251;BME280;41295;48.518;9.206;2023-09-19T01:24:38;96920.44;;;18.69;73.27
32251;BME280;41295;48.518;9.206;2023-09-19T01:27:06;96923.19;;;18.67;73.44
32251;BME280;41295;48.518;9.206;2023-09-19T01:29:25;96915.25;;;18.67;73.66
32251;BME280;41295;48.518;9.206;2023-09-19T01:31:37;96931.09;;;18.67;73.93
32251;BME280;41295;48.518;9.206;2023-09-19T01:33:58;96927.88;;;18.63;73.83
32251;BME280;41295;48.518;9.206;2023-09-19T01:36:01;96923.78;;;18.59;73.83
32251;BME280;41295;48.518;9.206;2023-09-19T01:38:05;96918.75;;;18.56;73.88
32251;BME280;41295;48.518;9.206;2023-09-19T01:40:12;96917.91;;;18.56;73.88
32251;BME280;41295;48.518;9.206;2023-09-19T01:42:24;96917.03;;;18.55;73.91
32251;BME280;41295;48.518;9.206;2023-09-19T01:44:40;96929.41;;;18.55;73.80
32251;BME280;41295;48.518;9.206;2023-09-19T01:46:47;96926.19;;;18.51;73.92
32251;BME280;41295;48.518;9.206;2023-09-19T01:48:57;96928.22;;;18.47;73.03
32251;BME280;41295;48.518;9.206;2023-09-19T01:51:02;96937.53;;;18.40;73.24
32251;BME280;41295;48.518;9.206;2023-09-19T01:53:07;96934.28;;;18.36;73.44
32251;BME280;41295;48.518;9.206;2023-09-19T01:55:14;96941.47;;;18.34;73.88
32251;BME280;41295;48.518;9.206;2023-09-19T01:57:23;96947.69;;;18.33;73.39
32251;BME280;41295;48.518;9.206;2023-09-19T01:59:36;96943.63;;;18.29;74.07
32251;BME280;41295;48.518;9.206;2023-09-19T02:01:42;96948.78;;;18.31;73.84
32251;BME280;41295;48.518;9.206;2023-09-19T02:03:49;96946.59;;;18.24;73.96
32251;BME280;41295;48.518;9.206;2023-09-19T02:05:52;96952.84;;;18.23;74.52
32251;BME280;41295;48.518;9.206;2023-09-19T02:07:56;96951.88;;;18.24;74.66
32251;BME280;41295;48.518;9.206;2023-09-19T02:09:58;96958.72;;;18.27;74.56
32251;BME280;41295;48.518;9.206;2023-09-19T02:12:01;96954.41;;;18.26;74.59
32251;BME280;41295;48.518;9.206;2023-09-19T02:14:06;96958.84;;;18.25;75.03
32251;BME280;41295;48.518;9.206;2023-09-19T02:16:10;96964.13;;;18.25;74.97
32251;BME280;41295;48.518;9.206;2023-09-19T02:18:14;96966.03;;;18.23;75.09
32251;BME280;41295;48.518;9.206;2023-09-19T02:20:18;96968.53;;;18.25;75.10
32251;BME280;41295;48.518;9.206;2023-09-19T02:22:22;96972.16;;;18.24;74.90
32251;BME280;41295;48.518;9.206;2023-09-19T02:24:26;96984.38;;;18.25;74.96
32251;BME280;41295;48.518;9.206;2023-09-19T02:26:29;96985.22;;;18.25;74.92
32251;BME280;41295;48.518;9.206;2023-09-19T02:28:32;96979.94;;;18.25;74.98
32251;BME280;41295;48.518;9.206;2023-09-19T02:30:35;96981.75;;;18.25;74.96
32251;BME280;41295;48.518;9.206;2023-09-19T02:32:38;96985.34;;;18.24;74.68
32251;BME280;41295;48.518;9.206;2023-09-19T02:34:41;96980.19;;;18.22;74.96
32251;BME280;41295;48.518;9.206;2023-09-19T02:36:44;96980.19;;;18.22;74.71
32251;BME280;41295;48.518;9.206;2023-09-19T02:38:50;96983.75;;;18.21;74.75
32251;BME280;41295;48.518;9.206;2023-09-19T02:40:53;96977.75;;;18.19;74.67
32251;BME280;41295;48.518;9.206;2023-09-19T02:42:57;96972.47;;;18.19;74.58
32251;BME280;41295;48.518;9.206;2023-09-19T02:45:00;96974.63;;;18.14;74.58
32251;BME280;41295;48.518;9.206;2023-09-19T02:47:05;96979.34;;;18.09;74.75
32251;BME280;41295;48.518;9.206;2023-09-19T02:49:08;96986.53;;;18.07;74.76
32251;BME280;41295;48.518;9.206;2023-09-19T02:51:11;96983.06;;;18.06;74.57
32251;BME280;41295;48.518;9.206;2023-09-19T02:53:16;96978.63;;;18.07;74.68
32251;BME280;41295;48.518;9.206;2023-09-19T02:55:20;96973.47;;;18.05;74.88
32251;BME280;41295;48.518;9.206;2023-09-19T02:57:23;96981.25;;;18.07;74.66
32251;BME280;41295;48.518;9.206;2023-09-19T02:59:26;96983.91;;;18.07;74.45
32251;BME280;41295;48.518;9.206;2023-09-19T03:01:30;96982.22;;;18.06;74.42
32251;BME280;41295;48.518;9.206;2023-09-19T03:03:33;96980.44;;;18.06;74.49
32251;BME280;41295;48.518;9.206;2023-09-19T03:05:36;96985.72;;;18.06;74.57
32251;BME280;41295;48.518;9.206;2023-09-19T03:07:40;96992.53;;;18.09;74.26
32251;BME280;41295;48.518;9.206;2023-09-19T03:09:46;96989.91;;;18.09;74.21
32251;BME280;41295;48.518;9.206;2023-09-19T03:11:48;96991.69;;;18.08;74.26
32251;BME280;41295;48.518;9.206;2023-09-19T03:13:52;96998.56;;;18.11;74.34
32251;BME280;41295;48.518;9.206;2023-09-19T03:15:54;97000.34;;;18.10;74.30
32251;BME280;41295;48.518;9.206;2023-09-19T03:17:58;96995.91;;;18.11;74.71
32251;BME280;41295;48.518;9.206;2023-09-19T03:20:01;96993.16;;;18.12;74.67
32251;BME280;41295;48.518;9.206;2023-09-19T03:22:03;96997.50;;;18.13;74.70
32251;BME280;41295;48.518;9.206;2023-09-19T03:24:06;96989.50;;;18.15;74.74
32251;BME280;41295;48.518;9.206;2023-09-19T03:26:10;96994.88;;;18.13;74.71
32251;BME280;41295;48.518;9.206;2023-09-19T03:28:14;96993.16;;;18.12;74.79
32251;BME280;41295;48.518;9.206;2023-09-19T03:30:17;96994.94;;;18.12;74.41
32251;BME280;41295;48.518;9.206;2023-09-19T03:32:19;96989.69;;;18.12;74.59
32251;BME280;41295;48.518;9.206;2023-09-19T03:34:22;97006.34;;;18.12;74.58
32251;BME280;41295;48.518;9.206;2023-09-19T03:36:25;97006.28;;;18.14;74.33
32251;BME280;41295;48.518;9.206;2023-09-19T03:38:29;97005.50;;;18.12;74.52
32251;BME280;41295;48.518;9.206;2023-09-19T03:40:32;97000.13;;;18.13;74.85
32251;BME280;41295;48.518;9.206;2023-09-19T03:42:38;97000.88;;;18.15;74.82
32251;BME280;41295;48.518;9.206;2023-09-19T03:44:40;97003.50;;;18.15;74.96
32251;BME280;41295;48.518;9.206;2023-09-19T03:46:44;97000.75;;;18.17;74.56
32251;BME280;41295;48.518;9.206;2023-09-19T03:48:46;97004.47;;;18.14;74.61
32251;BME280;41295;48.518;9.206;2023-09-19T03:50:49;97006.28;;;18.14;74.43
32251;BME280;41295;48.518;9.206;2023-09-19T03:52:56;97014.38;;;18.11;74.24
32251;BME280;41295;48.518;9.206;2023-09-19T03:54:58;97014.38;;;18.11;74.03
32251;BME280;41295;48.518;9.206;2023-09-19T03:57:02;97012.78;;;18.08;74.31
32251;BME280;41295;48.518;9.206;2023-09-19T03:59:07;97011.97;;;18.08;75.04
32251;BME280;41295;48.518;9.206;2023-09-19T04:01:11;97013.66;;;18.09;75.55
32251;BME280;41295;48.518;9.206;2023-09-19T04:03:15;97017.25;;;18.08;75.60
32251;BME280;41295;48.518;9.206;2023-09-19T04:05:22;97016.41;;;18.07;75.86
32251;BME280;41295;48.518;9.206;2023-09-19T04:07:24;97018.41;;;18.03;75.81
32251;BME280;41295;48.518;9.206;2023-09-19T04:09:30;97015.78;;;18.03;75.39
32251;BME280;41295;48.518;9.206;2023-09-19T04:11:33;97005.56;;;17.99;75.51
32251;BME280;41295;48.518;9.206;2023-09-19T04:13:35;96999.56;;;17.97;76.15
32251;BME280;41295;48.518;9.206;2023-09-19T04:15:39;96996.81;;;17.98;76.46
32251;BME280;41295;48.518;9.206;2023-09-19T04:17:42;96993.56;;;17.95;76.44
32251;BME280;41295;48.518;9.206;2023-09-19T04:19:44;96994.28;;;17.97;76.71
32251;BME280;41295;48.518;9.206;2023-09-19T04:21:47;96999.44;;;17.98;76.95
32251;BME280;41295;48.518;9.206;2023-09-19T04:23:50;96994.19;;;17.98;76.83
32251;BME280;41295;48.518;9.206;2023-09-19T04:25:53;96994.19;;;17.98;76.86
32251;BME280;41295;48.518;9.206;2023-09-19T04:27:55;96999.69;;;17.95;77.09
32251;BME280;41295;48.518;9.206;2023-09-19T04:29:59;97002.19;;;17.97;77.07
32251;BME280;41295;48.518;9.206;2023-09-19T04:32:03;97000.41;;;17.97;76.84
32251;BME280;41295;48.518;9.206;2023-09-19T04:34:07;97009.16;;;17.98;76.73
32251;BME280;41295;48.518;9.206;2023-09-19T04:36:11;97016.13;;;17.99;76.65
32251;BME280;41295;48.518;9.206;2023-09-19T04:38:34;97012.63;;;17.98;76.37
32251;BME280;41295;48.518;9.206;2023-09-19T04:40:37;97018.88;;;17.97;76.15
32251;BME280;41295;48.518;9.206;2023-09-19T04:42:41;97014.66;;;17.95;76.32
32251;BME280;41295;48.518;9.206;2023-09-19T04:44:46;97017.53;;;17.91;76.48
32251;BME280;41295;48.518;9.206;2023-09-19T04:46:51;97019.41;;;17.89;76.47
32251;BME280;41295;48.518;9.206;2023-09-19T04:48:55;97016.91;;;17.88;76.12
32251;BME280;41295;48.518;9.206;2023-09-19T04:50:57;97011.63;;;17.88;76.00
32251;BME280;41295;48.518;9.206;2023-09-19T04:53:01;97008.13;;;17.87;76.05
32251;BME280;41295;48.518;9.206;2023-09-19T04:55:05;97017.84;;;17.87;75.74
32251;BME280;41295;48.518;9.206;2023-09-19T04:57:08;97020.47;;;17.87;75.78
32251;BME280;41295;48.518;9.206;2023-09-19T04:59:10;97021.44;;;17.86;76.01
32251;BME280;41295;48.518;9.206;2023-09-19T05:01:13;97023.34;;;17.84;76.21
32251;BME280;41295;48.518;9.206;2023-09-19T05:03:17;97026.19;;;17.81;76.20
32251;BME280;41295;48.518;9.206;2023-09-19T05:05:20;97021.03;;;17.79;76.52
32251;BME280;41295;48.518;9.206;2023-09-19T05:07:24;97024.59;;;17.78;76.58
32251;BME280;41295;48.518;9.206;2023-09-19T05:09:27;97021.03;;;17.79;76.29
32251;BME280;41295;48.518;9.206;2023-09-19T05:11:30;97027.97;;;17.80;76.38
32251;BME280;41295;48.518;9.206;2023-09-19T05:13:33;97033.88;;;17.84;75.56
32251;BME280;41295;48.518;9.206;2023-09-19T05:15:35;97029.78;;;17.79;75.78
32251;BME280;41295;48.518;9.206;2023-09-19T05:17:38;97029.88;;;17.78;76.24
32251;BME280;41295;48.518;9.206;2023-09-19T05:19:41;97025.47;;;17.78;76.44
32251;BME280;41295;48.518;9.206;2023-09-19T05:21:48;97022.81;;;17.78;76.44
32251;BME280;41295;48.518;9.206;2023-09-19T05:23:51;97019.34;;;17.78;76.48
32251;BME280;41295;48.518;9.206;2023-09-19T05:25:54;97021.03;;;17.79;76.50
32251;BME280;41295;48.518;9.206;2023-09-19T05:27:58;97030.50;;;17.82;76.46
32251;BME280;41295;48.518;9.206;2023-09-19T05:30:00;97033.03;;;17.83;76.04
32251;BME280;41295;48.518;9.206;2023-09-19T05:32:04;97030.31;;;17.85;75.90
32251;BME280;41295;48.518;9.206;2023-09-19T05:34:07;97035.34;;;17.88;76.05
32251;BME280;41295;48.518;9.206;2023-09-19T05:36:09;97042.31;;;17.89;75.80
32251;BME280;41295;48.518;9.206;2023-09-19T05:38:14;97043.03;;;17.91;75.99
32251;BME280;41295;48.518;9.206;2023-09-19T05:40:20;97049.16;;;17.91;75.75
32251;BME280;41295;48.518;9.206;2023-09-19T05:42:23;97051.91;;;17.90;75.63
32251;BME280;41295;48.518;9.206;2023-09-19T05:44:26;97057.19;;;17.90;75.49
32251;BME280;41295;48.518;9.206;2023-09-19T05:46:28;97056.22;;;17.91;75.43
32251;BME280;41295;48.518;9.206;2023-09-19T05:48:31;97056.00;;;17.94;75.07
32251;BME280;41295;48.518;9.206;2023-09-19T05:50:34;97066.34;;;17.97;75.12
32251;BME280;41295;48.518;9.206;2023-09-19T05:52:36;97064.44;;;17.99;75.51
32251;BME280;41295;48.518;9.206;2023-09-19T05:54:40;97069.63;;;18.01;75.60
32251;BME280;41295;48.518;9.206;2023-09-19T05:56:44;97070.56;;;18.00;75.26
32251;BME280;41295;48.518;9.206;2023-09-19T05:58:48;97075.09;;;17.98;75.37
32251;BME280;41295;48.518;9.206;2023-09-19T06:00:53;97074.03;;;18.00;75.68
32251;BME280;41295;48.518;9.206;2023-09-19T06:02:58;97082.69;;;18.02;75.47
32251;BME280;41295;48.518;9.206;2023-09-19T06:05:01;97079.22;;;18.02;75.66
32251;BME280;41295;48.518;9.206;2023-09-19T06:07:04;97077.41;;;18.02;75.43
32251;BME280;41295;48.518;9.206;2023-09-19T06:09:07;97083.41;;;18.04;75.53
32251;BME280;41295;48.518;9.206;2023-09-19T06:11:12;97088.47;;;18.08;75.66
32251;BME280;41295;48.518;9.206;2023-09-19T06:13:13;97099.84;;;18.08;75.49
32251;BME280;41295;48.518;9.206;2023-09-19T06:15:16;97099.97;;;18.07;75.38
32251;BME280;41295;48.518;9.206;2023-09-19T06:17:20;97102.59;;;18.07;75.61
32251;BME280;41295;48.518;9.206;2023-09-19T06:19:24;97104.31;;;18.08;76.03
32251;BME280;41295;48.518;9.206;2023-09-19T06:21:27;97102.59;;;18.07;76.20
32251;BME280;41295;48.518;9.206;2023-09-19T06:23:30;97111.50;;;18.06;75.54
32251;BME280;41295;48.518;9.206;2023-09-19T06:25:32;97115.78;;;18.07;75.47
32251;BME280;41295;48.518;9.206;2023-09-19T06:27:37;97119.41;;;18.06;75.41
32251;BME280;41295;48.518;9.206;2023-09-19T06:29:40;97118.56;;;18.05;76.05
32251;BME280;41295;48.518;9.206;2023-09-19T06:31:43;97121.31;;;18.03;76.02
32251;BME280;41295;48.518;9.206;2023-09-19T06:33:46;97125.84;;;18.01;76.37
32251;BME280;41295;48.518;9.206;2023-09-19T06:35:49;97126.56;;;18.03;76.40
32251;BME280;41295;48.518;9.206;2023-09-19T06:37:54;97123.94;;;18.03;75.73
32251;BME280;41295;48.518;9.206;2023-09-19T06:39:56;97136.38;;;18.01;76.22
32251;BME280;41295;48.518;9.206;2023-09-19T06:41:58;97135.66;;;17.99;76.01
32251;BME280;41295;48.518;9.206;2023-09-19T06:44:04;97128.06;;;18.08;75.43
32251;BME280;41295;48.518;9.206;2023-09-19T06:46:07;97136.38;;;18.01;76.07
32251;BME280;41295;48.518;9.206;2023-09-19T06:48:11;97142.91;;;18.09;76.35
32251;BME280;41295;48.518;9.206;2023-09-19T06:50:14;97143.38;;;18.02;76.14
32251;BME280;41295;48.518;9.206;2023-09-19T06:52:17;97149.69;;;18.00;76.43
32251;BME280;41295;48.518;9.206;2023-09-19T06:54:23;97151.06;;;18.06;76.56
32251;BME280;41295;48.518;9.206;2023-09-19T06:56:26;97146.94;;;18.01;76.82
32251;BME280;41295;48.518;9.206;2023-09-19T06:58:29;97148.66;;;18.02;76.83
32251;BME280;41295;48.518;9.206;2023-09-19T07:00:34;97156.44;;;18.04;77.26
32251;BME280;41295;48.518;9.206;2023-09-19T07:02:38;97155.72;;;18.02;77.07
32251;BME280;41295;48.518;9.206;2023-09-19T07:04:42;97155.59;;;18.03;77.00
32251;BME280;41295;48.518;9.206;2023-09-19T07:06:44;97166.78;;;18.07;77.39
32251;BME280;41295;48.518;9.206;2023-09-19T07:08:51;97167.63;;;18.08;76.92
32251;BME280;41295;48.518;9.206;2023-09-19T07:10:56;97162.13;;;18.11;76.51
32251;BME280;41295;48.518;9.206;2023-09-19T07:12:59;97155.06;;;18.11;76.34
32251;BME280;41295;48.518;9.206;2023-09-19T07:15:03;97161.28;;;18.10;76.11
32251;BME280;41295;48.518;9.206;2023-09-19T07:17:08;97158.00;;;18.07;76.42
32251;BME280;41295;48.518;9.206;2023-09-19T07:19:11;97156.97;;;18.09;76.79
32251;BME280;41295;48.518;9.206;2023-09-19T07:21:16;97157.69;;;18.11;76.91
32251;BME280;41295;48.518;9.206;2023-09-19T07:23:19;97156.66;;;18.14;76.75
32251;BME280;41295;48.518;9.206;2023-09-19T07:25:24;97164.56;;;18.14;76.91
32251;BME280;41295;48.518;9.206;2023-09-19T07:27:26;97165.19;;;18.18;77.00
32251;BME280;41295;48.518;9.206;2023-09-19T07:29:29;97166.69;;;18.22;77.03
32251;BME280;41295;48.518;9.206;2023-09-19T07:31:32;97174.47;;;18.23;76.92
32251;BME280;41295;48.518;9.206;2023-09-19T07:33:36;97174.47;;;18.23;76.59
32251;BME280;41295;48.518;9.206;2023-09-19T07:35:39;97189.28;;;18.26;76.75
32251;BME280;41295;48.518;9.206;2023-09-19T07:37:42;97184.69;;;18.28;76.58
32251;BME280;41295;48.518;9.206;2023-09-19T07:39:45;97185.13;;;18.35;76.08
32251;BME280;41295;48.518;9.206;2023-09-19T07:41:47;97188.94;;;18.31;75.82
32251;BME280;41295;48.518;9.206;2023-09-19T07:43:51;97182.69;;;18.32;76.11
32251;BME280;41295;48.518;9.206;2023-09-19T07:45:54;97181.66;;;18.34;76.45
32251;BME280;41295;48.518;9.206;2023-09-19T07:47:57;97183.31;;;18.35;76.86
32251;BME280;41295;48.518;9.206;2023-09-19T07:50:03;97180.38;;;18.40;76.72
32251;BME280;41295;48.518;9.206;2023-09-19T07:52:05;97188.91;;;18.44;76.43
32251;BME280;41295;48.518;9.206;2023-09-19T07:54:09;97198.41;;;18.46;76.33
32251;BME280;41295;48.518;9.206;2023-09-19T07:56:12;97206.09;;;18.49;75.19
32251;BME280;41295;48.518;9.206;2023-09-19T07:58:14;97201.22;;;18.56;74.39
32251;BME280;41295;48.518;9.206;2023-09-19T08:00:17;97203.97;;;18.55;74.04
32251;BME280;41295;48.518;9.206;2023-09-19T08:02:21;97201.84;;;18.60;74.84
32251;BME280;41295;48.518;9.206;2023-09-19T08:04:24;97202.69;;;18.60;74.80
32251;BME280;41295;48.518;9.206;2023-09-19T08:06:29;97213.13;;;18.62;73.99
32251;BME280;41295;48.518;9.206;2023-09-19T08:08:33;97196.25;;;18.65;74.34
32251;BME280;41295;48.518;9.206;2023-09-19T08:10:38;97206.56;;;18.68;73.50
32251;BME280;41295;48.518;9.206;2023-09-19T08:12:44;97207.41;;;18.68;73.75
32251;BME280;41295;48.518;9.206;2023-09-19T08:14:48;97209.84;;;18.71;72.63
32251;BME280;41295;48.518;9.206;2023-09-19T08:16:56;97217.03;;;18.69;71.57
32251;BME280;41295;48.518;9.206;2023-09-19T08:18:59;97215.00;;;18.73;71.67
32251;BME280;41295;48.518;9.206;2023-09-19T08:21:02;97220.63;;;18.68;71.84
32251;BME280;41295;48.518;9.206;2023-09-19T08:23:06;97227.06;;;18.64;71.81
32251;BME280;41295;48.518;9.206;2023-09-19T08:25:09;97230.44;;;18.66;72.09
32251;BME280;41295;48.518;9.206;2023-09-19T08:27:12;97229.41;;;18.69;72.36
32251;BME280;41295;48.518;9.206;2023-09-19T08:29:15;97233.81;;;18.68;72.13
32251;BME280;41295;48.518;9.206;2023-09-19T08:31:19;97232.44;;;18.75;71.43
32251;BME280;41295;48.518;9.206;2023-09-19T08:33:22;97230.84;;;18.73;71.54
32251;BME280;41295;48.518;9.206;2023-09-19T08:35:25;97237.31;;;18.69;71.13
32251;BME280;41295;48.518;9.206;2023-09-19T08:37:28;97240.91;;;18.68;71.26
32251;BME280;41295;48.518;9.206;2023-09-19T08:39:32;97248.81;;;18.68;71.35
32251;BME280;41295;48.518;9.206;2023-09-19T08:41:36;97241.75;;;18.68;70.38
32251;BME280;41295;48.518;9.206;2023-09-19T08:43:39;97237.84;;;18.74;68.41
32251;BME280;41295;48.518;9.206;2023-09-19T08:45:42;97248.59;;;18.71;68.59
32251;BME280;41295;48.518;9.206;2023-09-19T08:47:56;97242.69;;;18.67;68.61
32251;BME280;41295;48.518;9.206;2023-09-19T08:50:04;97255.88;;;18.67;68.56
32251;BME280;41295;48.518;9.206;2023-09-19T08:52:20;97256.22;;;18.75;68.84
32251;BME280;41295;48.518;9.206;2023-09-19T08:54:25;97260.91;;;18.83;68.52
32251;BME280;41295;48.518;9.206;2023-09-19T08:56:30;97255.00;;;18.80;66.31
32251;BME280;41295;48.518;9.206;2023-09-19T08:58:39;97257.66;;;18.80;67.09
32251;BME280;41295;48.518;9.206;2023-09-19T09:00:47;97257.22;;;18.86;66.07
32251;BME280;41295;48.518;9.206;2023-09-19T09:02:51;97261.34;;;18.90;66.23
32251;BME280;41295;48.518;9.206;2023-09-19T09:04:57;97249.03;;;19.02;64.07
32251;BME280;41295;48.518;9.206;2023-09-19T09:07:01;97246.41;;;19.02;63.45
32251;BME280;41295;48.518;9.206;2023-09-19T09:09:05;97253.16;;;19.06;63.44
32251;BME280;41295;48.518;9.206;2023-09-19T09:11:08;97246.78;;;19.09;63.21
32251;BME280;41295;48.518;9.206;2023-09-19T09:13:16;97248.41;;;19.11;63.19
32251;BME280;41295;48.518;9.206;2023-09-19T09:15:21;97250.13;;;19.24;64.64
32251;BME280;41295;48.518;9.206;2023-09-19T09:17:25;97245.34;;;19.29;61.87
32251;BME280;41295;48.518;9.206;2023-09-19T09:19:28;97253.84;;;19.21;62.08
32251;BME280;41295;48.518;9.206;2023-09-19T09:21:32;97266.72;;;19.26;62.35
32251;BME280;41295;48.518;9.206;2023-09-19T09:23:37;97254.31;;;19.15;61.13
32251;BME280;41295;48.518;9.206;2023-09-19T09:25:48;97262.13;;;19.17;61.94
32251;BME280;41295;48.518;9.206;2023-09-19T09:27:59;97254.06;;;19.18;62.93
32251;BME280;41295;48.518;9.206;2023-09-19T09:30:06;97265.88;;;19.26;61.39
32251;BME280;41295;48.518;9.206;2023-09-19T09:32:22;97261.75;;;19.21;61.33
32251;BME280;41295;48.518;9.206;2023-09-19T09:34:32;97256.31;;;19.11;60.59
32251;BME280;41295;48.518;9.206;2023-09-19T09:36:36;97253.44;;;19.15;61.00
32251;BME280;41295;48.518;9.206;2023-09-19T09:38:43;97253.84;;;19.21;60.20
32251;BME280;41295;48.518;9.206;2023-09-19T09:40:48;97266.19;;;19.21;60.29
32251;BME280;41295;48.518;9.206;2023-09-19T09:42:54;97259.69;;;19.14;61.13
32251;BME280;41295;48.518;9.206;2023-09-19T09:45:14;97263.69;;;19.19;60.62
32251;BME280;41295;48.518;9.206;2023-09-19T09:47:42;97265.81;;;19.14;59.76
32251;BME280;41295;48.518;9.206;2023-09-19T09:49:51;97260.22;;;19.19;59.61
32251;BME280;41295;48.518;9.206;2023-09-19T09:52:09;97261.03;;;19.19;59.75
32251;BME280;41295;48.518;9.206;2023-09-19T09:54:18;97257.66;;;19.17;59.87
32251;BME280;41295;48.518;9.206;2023-09-19T09:56:24;97259.34;;;19.18;60.42
32251;BME280;41295;48.518;9.206;2023-09-19T09:58:28;97267.66;;;19.25;59.76
32251;BME280;41295;48.518;9.206;2023-09-19T10:00:40;97255.31;;;19.26;59.78
32251;BME280;41295;48.518;9.206;2023-09-19T10:02:57;97256.97;;;19.27;60.59
32251;BME280;41295;48.518;9.206;2023-09-19T10:05:12;97245.97;;;19.33;59.88
32251;BME280;41295;48.518;9.206;2023-09-19T10:07:28;97239.69;;;19.22;60.62
32251;BME280;41295;48.518;9.206;2023-09-19T10:09:44;97253.16;;;19.31;60.86
32251;BME280;41295;48.518;9.206;2023-09-19T10:12:00;97245.47;;;19.28;61.18
32251;BME280;41295;48.518;9.206;2023-09-19T10:14:06;97251.03;;;19.36;61.32
32251;BME280;41295;48.518;9.206;2023-09-19T10:16:13;97243.81;;;19.38;59.90
32251;BME280;41295;48.518;9.206;2023-09-19T10:18:20;97248.88;;;19.41;60.35
32251;BME280;41295;48.518;9.206;2023-09-19T10:20:22;97239.66;;;19.47;59.38
32251;BME280;41295;48.518;9.206;2023-09-19T10:22:46;97248.00;;;19.65;58.94
32251;BME280;41295;48.518;9.206;2023-09-19T10:24:59;97243.91;;;19.61;59.41
32251;BME280;41295;48.518;9.206;2023-09-19T10:27:05;97241.88;;;19.65;59.91
32251;BME280;41295;48.518;9.206;2023-09-19T10:29:10;97244.44;;;19.78;59.03
32251;BME280;41295;48.518;9.206;2023-09-19T10:31:19;97252.25;;;19.79;58.11
32251;BME280;41295;48.518;9.206;2023-09-19T10:33:24;97242.75;;;19.88;58.64
32251;BME280;41295;48.518;9.206;2023-09-19T10:35:28;97237.00;;;19.94;56.52
32251;BME280;41295;48.518;9.206;2023-09-19T10:37:32;97236.50;;;19.89;56.83
32251;BME280;41295;48.518;9.206;2023-09-19T10:39:36;97249.50;;;19.92;56.65
32251;BME280;41295;48.518;9.206;2023-09-19T10:41:42;97237.00;;;19.94;55.56
32251;BME280;41295;48.518;9.206;2023-09-19T10:43:48;97240.97;;;20.00;55.70
32251;BME280;41295;48.518;9.206;2023-09-19T10:45:53;97234.94;;;19.98;56.13
32251;BME280;41295;48.518;9.206;2023-09-19T10:48:00;97231.25;;;20.01;56.75
32251;BME280;41295;48.518;9.206;2023-09-19T10:50:04;97233.75;;;20.02;56.89
32251;BME280;41295;48.518;9.206;2023-09-19T10:52:09;97237.88;;;20.18;55.95
32251;BME280;41295;48.518;9.206;2023-09-19T10:54:17;97231.28;;;20.24;54.11
32251;BME280;41295;48.518;9.206;2023-09-19T10:56:24;97230.56;;;20.33;54.13
32251;BME280;41295;48.518;9.206;2023-09-19T10:58:31;97247.88;;;20.37;53.42
32251;BME280;41295;48.518;9.206;2023-09-19T11:00:50;97234.03;;;20.34;52.47
32251;BME280;41295;48.518;9.206;2023-09-19T11:03:20;97226.47;;;20.40;51.91
32251;BME280;41295;48.518;9.206;2023-09-19T11:05:25;97224.41;;;20.44;52.26